PWSweather.com
Personal Weather Stations
Station Observations
KNVELKO7
Elko, NV 89801

Elko, NV 89801

Lat: 40.963233, Lon: -115.592836

Elevation: 5230

Station Type: WS-2812

Latest ConditionsUpdated 3:42:33 AM PDT Sunday, Apr 20, 2014
Currently Today's Max Today's Min Today's Average
Temperature 42.8°F6.0°C 49.7°F9.8°C 42.7°F5.9°C 45.7°F7.6°C
Dew Point 21.2°F-6.0°C 23.2°F-4.9°C 20.0°F-6.7°C 21.5°F-5.8°C
Winds 1.8 mph NNW2.9 kmh NNW 9.6 mph N15.4 kmh N - 2.7 mph 4.3 kmh
Wind Gusts 2.7 mph4.3 kmh 12.5 mph20.1 kmh - -
Humidity 42% 42% 34% 38%
Pressure 30.13 in1020.3 mb 30.13 in1020.3 mb 30.07 in1018.3 mb -
Hour Temp Dew Point Humidity Winds Wind Gusts Pressure Precip Precip Rate Daily Precip Total
03:42 AM 42.8°F6.0°C 21.2°F-6.0°C 42% 1.8 mph NNW2.9 kmh NNW 2.7 mph4.3 kmh 30.13 in1020.3 mb 0.00 in0.0 mm 0.00 in/hr0.0 mm/hr 0.00 in0.0 mm
03:37 AM 42.8°F6.0°C 21.2°F-6.0°C 42% 2.0 mph W3.2 kmh W 2.2 mph3.5 kmh 30.13 in1020.3 mb 0.00 in0.0 mm 0.00 in/hr0.0 mm/hr 0.00 in0.0 mm
03:32 AM 42.7°F5.9°C 20.5°F-6.4°C 41% 1.5 mph WSW2.4 kmh WSW 2.2 mph3.5 kmh 30.13 in1020.3 mb 0.00 in0.0 mm 0.00 in/hr0.0 mm/hr 0.00 in0.0 mm
03:27 AM 42.7°F5.9°C 20.5°F-6.4°C 41% 0.8 mph SW1.3 kmh SW 2.2 mph3.5 kmh 30.13 in1020.3 mb 0.00 in0.0 mm 0.00 in/hr0.0 mm/hr 0.00 in0.0 mm
03:22 AM 42.7°F5.9°C 20.5°F-6.4°C 41% 2.1 mph S3.4 kmh S 2.2 mph3.5 kmh 30.12 in1020.0 mb 0.00 in0.0 mm 0.00 in/hr0.0 mm/hr 0.00 in0.0 mm
03:17 AM 42.7°F5.9°C 20.0°F-6.7°C 40% Calm Calm -- 30.12 in1020.0 mb 0.00 in0.0 mm 0.00 in/hr0.0 mm/hr 0.00 in0.0 mm
03:12 AM 42.8°F6.0°C 20.2°F-6.6°C 40% Calm Calm -- 30.12 in1020.0 mb 0.00 in0.0 mm 0.00 in/hr0.0 mm/hr 0.00 in0.0 mm
03:07 AM 43.2°F6.2°C 20.5°F-6.4°C 40% Calm Calm 1.6 mph2.6 kmh 30.12 in1020.0 mb 0.00 in0.0 mm 0.00 in/hr0.0 mm/hr 0.00 in0.0 mm
03:02 AM 43.4°F6.3°C 20.6°F-6.3°C 40% 1.0 mph SSW1.6 kmh SSW 1.6 mph2.6 kmh 30.12 in1020.0 mb 0.00 in0.0 mm 0.00 in/hr0.0 mm/hr 0.00 in0.0 mm
02:56 AM 43.6°F6.4°C 20.8°F-6.2°C 40% 1.1 mph 1.8 kmh 2.0 mph3.2 kmh 30.12 in1020.0 mb 0.00 in0.0 mm 0.00 in/hr0.0 mm/hr 0.00 in0.0 mm
02:50 AM 43.7°F6.5°C 21.0°F-6.1°C 40% 1.6 mph N2.6 kmh N 2.7 mph4.3 kmh 30.12 in1020.0 mb 0.00 in0.0 mm 0.00 in/hr0.0 mm/hr 0.00 in0.0 mm
02:45 AM 43.6°F6.4°C 20.8°F-6.2°C 40% 2.0 mph N3.2 kmh N 2.2 mph3.5 kmh 30.12 in1020.0 mb 0.00 in0.0 mm 0.00 in/hr0.0 mm/hr 0.00 in0.0 mm
02:40 AM 43.6°F6.4°C 20.8°F-6.2°C 40% 0.7 mph 1.1 kmh 0.7 mph1.1 kmh 30.11 in1019.6 mb 0.00 in0.0 mm 0.00 in/hr0.0 mm/hr 0.00 in0.0 mm
02:35 AM 43.6°F6.4°C 21.3°F-5.9°C 41% Calm Calm 3.8 mph6.1 kmh 30.11 in1019.6 mb 0.00 in0.0 mm 0.00 in/hr0.0 mm/hr 0.00 in0.0 mm
02:30 AM 43.6°F6.4°C 21.3°F-5.9°C 41% 1.6 mph ENE2.6 kmh ENE 6.3 mph10.1 kmh 30.11 in1019.6 mb 0.00 in0.0 mm 0.00 in/hr0.0 mm/hr 0.00 in0.0 mm
02:25 AM 43.6°F6.4°C 20.8°F-6.2°C 40% 5.5 mph N8.9 kmh N 6.3 mph10.1 kmh 30.11 in1019.6 mb 0.00 in0.0 mm 0.00 in/hr0.0 mm/hr 0.00 in0.0 mm
02:20 AM 43.9°F6.6°C 21.2°F-6.0°C 40% 0.8 mph E1.3 kmh E 2.5 mph4.0 kmh 30.11 in1019.6 mb 0.00 in0.0 mm 0.00 in/hr0.0 mm/hr 0.00 in0.0 mm
02:14 AM 44.5°F6.9°C 21.6°F-5.8°C 40% 1.6 mph E2.6 kmh E 3.4 mph5.5 kmh 30.11 in1019.6 mb 0.00 in0.0 mm 0.00 in/hr0.0 mm/hr 0.00 in0.0 mm
02:09 AM 44.8°F7.1°C 21.2°F-6.0°C 39% 3.1 mph E5.0 kmh E 3.4 mph5.5 kmh 30.10 in1019.3 mb 0.00 in0.0 mm 0.00 in/hr0.0 mm/hr 0.00 in0.0 mm
02:04 AM 45.0°F7.2°C 21.4°F-5.9°C 39% 3.4 mph E5.5 kmh E 3.4 mph5.5 kmh 30.10 in1019.3 mb 0.00 in0.0 mm 0.00 in/hr0.0 mm/hr 0.00 in0.0 mm
01:59 AM 45.4°F7.4°C 21.8°F-5.7°C 39% 1.8 mph ESE2.9 kmh ESE 3.6 mph5.8 kmh 30.10 in1019.3 mb 0.00 in0.0 mm 0.00 in/hr0.0 mm/hr 0.00 in0.0 mm
01:53 AM 45.9°F7.7°C 21.6°F-5.8°C 38% 2.2 mph E3.5 kmh E 6.3 mph10.1 kmh 30.10 in1019.3 mb 0.00 in0.0 mm 0.00 in/hr0.0 mm/hr 0.00 in0.0 mm
01:48 AM 46.4°F8.0°C 22.1°F-5.5°C 38% 4.9 mph E7.9 kmh E 6.3 mph10.1 kmh 30.10 in1019.3 mb 0.00 in0.0 mm 0.00 in/hr0.0 mm/hr 0.00 in0.0 mm
01:43 AM 47.2°F8.4°C 22.7°F-5.2°C 38% 6.2 mph E10.0 kmh E 6.3 mph10.1 kmh 30.10 in1019.3 mb 0.00 in0.0 mm 0.00 in/hr0.0 mm/hr 0.00 in0.0 mm
01:38 AM 47.9°F8.8°C 22.7°F-5.2°C 37% 4.4 mph E7.1 kmh E 5.6 mph9.0 kmh 30.09 in1019.0 mb 0.00 in0.0 mm 0.00 in/hr0.0 mm/hr 0.00 in0.0 mm
01:33 AM 48.2°F9.0°C 22.3°F-5.4°C 36% 4.9 mph NE7.9 kmh NE 6.7 mph10.8 kmh 30.09 in1019.0 mb 0.00 in0.0 mm 0.00 in/hr0.0 mm/hr 0.00 in0.0 mm
01:28 AM 48.4°F9.1°C 22.5°F-5.3°C 36% 3.1 mph NE5.0 kmh NE 9.2 mph14.8 kmh 30.09 in1019.0 mb 0.00 in0.0 mm 0.00 in/hr0.0 mm/hr 0.00 in0.0 mm
01:23 AM 48.4°F9.1°C 23.2°F-4.9°C 37% 6.4 mph NNE10.3 kmh NNE 12.5 mph20.1 kmh 30.09 in1019.0 mb 0.00 in0.0 mm 0.00 in/hr0.0 mm/hr 0.00 in0.0 mm
01:18 AM 47.7°F8.7°C 23.2°F-4.9°C 38% 9.6 mph N15.4 kmh N 12.5 mph20.1 kmh 30.08 in1018.6 mb 0.00 in0.0 mm 0.00 in/hr0.0 mm/hr 0.00 in0.0 mm
01:12 AM 47.0°F8.3°C 21.3°F-5.9°C 36% 6.3 mph NNE10.1 kmh NNE 7.2 mph11.6 kmh 30.08 in1018.6 mb 0.00 in0.0 mm 0.00 in/hr0.0 mm/hr 0.00 in0.0 mm
01:07 AM 47.2°F8.4°C 22.1°F-5.5°C 37% 1.1 mph ENE1.8 kmh ENE 5.6 mph9.0 kmh 30.09 in1019.0 mb 0.00 in0.0 mm 0.00 in/hr0.0 mm/hr 0.00 in0.0 mm
01:02 AM 47.7°F8.7°C 21.9°F-5.6°C 36% 4.1 mph ESE6.6 kmh ESE 5.6 mph9.0 kmh 30.08 in1018.6 mb 0.00 in0.0 mm 0.00 in/hr0.0 mm/hr 0.00 in0.0 mm
12:57 AM 48.4°F9.1°C 21.2°F-6.0°C 34% 5.1 mph SE8.2 kmh SE 5.4 mph8.7 kmh 30.09 in1019.0 mb 0.00 in0.0 mm 0.00 in/hr0.0 mm/hr 0.00 in0.0 mm
12:51 AM 49.3°F9.6°C 22.0°F-5.6°C 34% Calm Calm 2.5 mph4.0 kmh 30.08 in1018.6 mb 0.00 in0.0 mm 0.00 in/hr0.0 mm/hr 0.00 in0.0 mm
12:46 AM 49.7°F9.8°C 22.2°F-5.4°C 34% 0.8 mph 1.3 kmh 5.4 mph8.7 kmh 30.08 in1018.6 mb 0.00 in0.0 mm 0.00 in/hr0.0 mm/hr 0.00 in0.0 mm
12:41 AM 49.7°F9.8°C 22.2°F-5.4°C 34% 4.3 mph NNW6.9 kmh NNW 5.4 mph8.7 kmh 30.08 in1018.6 mb 0.00 in0.0 mm 0.00 in/hr0.0 mm/hr 0.00 in0.0 mm
12:36 AM 49.3°F9.6°C 22.6°F-5.2°C 35% 3.8 mph N6.1 kmh N 7.4 mph11.9 kmh 30.08 in1018.6 mb 0.00 in0.0 mm 0.00 in/hr0.0 mm/hr 0.00 in0.0 mm
12:31 AM 48.6°F9.2°C 22.7°F-5.2°C 36% 4.0 mph NW6.4 kmh NW 8.7 mph14.0 kmh 30.08 in1018.6 mb 0.00 in0.0 mm 0.00 in/hr0.0 mm/hr 0.00 in0.0 mm
12:26 AM 48.1°F8.9°C 22.2°F-5.4°C 36% 8.6 mph 13.8 kmh 8.7 mph14.0 kmh 30.08 in1018.6 mb 0.00 in0.0 mm 0.00 in/hr0.0 mm/hr 0.00 in0.0 mm
12:21 AM 47.3°F8.5°C 21.5°F-5.8°C 36% 3.1 mph NNE5.0 kmh NNE 4.9 mph7.9 kmh 30.08 in1018.6 mb 0.00 in0.0 mm 0.00 in/hr0.0 mm/hr 0.00 in0.0 mm
12:16 AM 46.8°F8.2°C 21.1°F-6.1°C 36% 2.1 mph 3.4 kmh 3.1 mph5.0 kmh 30.07 in1018.3 mb 0.00 in0.0 mm 0.00 in/hr0.0 mm/hr 0.00 in0.0 mm
12:11 AM 45.9°F7.7°C 20.9°F-6.2°C 37% 0.4 mph NNW0.6 kmh NNW 2.5 mph4.0 kmh 30.07 in1018.3 mb 0.00 in0.0 mm 0.00 in/hr0.0 mm/hr 0.00 in0.0 mm
12:06 AM 45.2°F7.3°C 20.3°F-6.5°C 37% Calm Calm 4.9 mph7.9 kmh 30.07 in1018.3 mb 0.00 in0.0 mm 0.00 in/hr0.0 mm/hr 0.00 in0.0 mm
12:01 AM 45.0°F7.2°C 20.8°F-6.2°C 38% 0.2 mph SE0.3 kmh SE 4.9 mph7.9 kmh 30.07 in1018.3 mb 0.00 in0.0 mm 0.00 in/hr0.0 mm/hr 0.00 in0.0 mm